Winedale's Hourly Summary for Monday, July 9, 2018
Hour Temp
(f)
RH
(%)
Solar Rad.
(MJ/m2)
Rainfall
(in)
Wind
(mph)
7/9/2018 12:00 AM 74 96 0 0 0
7/9/2018 1:00 AM 74 97 0 0 0
7/9/2018 2:00 AM 74 97 0 0 0
7/9/2018 3:00 AM 73 97 0 0 0
7/9/2018 4:00 AM 73 98 0 0 0
7/9/2018 5:00 AM 73 97 0 0 0
7/9/2018 6:00 AM 73 97 0 0 0
7/9/2018 7:00 AM 73 98 0.02 0 0
7/9/2018 8:00 AM 74 95 0.33 0 0
7/9/2018 9:00 AM 77 89 0.67 0 0.5
7/9/2018 10:00 AM 81 74 1.56 0 4.14
7/9/2018 11:00 AM 83 63 1.72 0 4.84
7/9/2018 12:00 PM 84 60 2.32 0.01 6.02
7/9/2018 1:00 PM 81 61 2.5 0.06 2.35
7/9/2018 2:00 PM 83 52 1.49 0 4.25
7/9/2018 3:00 PM 78 77 0.82 0.14 5.26
7/9/2018 4:00 PM 72 93 0.1 1.3 3.45
7/9/2018 5:00 PM 72 97 0.46 0.04 2.86
7/9/2018 6:00 PM 74 92 0.71 0 3.64
7/9/2018 7:00 PM 75 91 0.36 0 0.82
7/9/2018 8:00 PM 75 94 0.16 0 0.65
7/9/2018 9:00 PM 74 95 0.02 0 0.08
7/9/2018 10:00 PM 74 97 0 0 0
7/9/2018 11:00 PM 73 98 0 0 0
Data Summary 75 87 13.24 1.55 1.62